Bakewell, United Kingdom
Current Conditions -  °F | °C
As of 10:50 PM on Thursday 18 Dec 2014 (Local Time) from EGCC Reporting Station
Light Rain Light Rain  
Wind Chill: 43°   Ceiling: 700
Heat Index: 48°   Visibility: 3mi
Dew Point: 46°   Wind: 13mph
Humidity: 93%   Direction: 280°W
Pressure: 29.65"   Gusts: NA
Location:  53.21°N, 1.67°W
Report Text: EGCC 182250Z 28011KT 5000 -RA SCT005 BKN007 BKN010 09/08 Q1004 TEMPO RA
Loading
Personal Weather Stations






























Interactive Weather Map New forecast layout! Learn more

10-Day Weather Forecast

Advertisements
Track Severe Weather on mobile